Time;durP1;ratioP1;P1;durP2;ratioP2;P2;SDS_P1;SDS_P2;PMS_P1;PMS_P2;Temp;Humidity;BMP_temperature;BMP_pressure;BME280_temperature;BME280_humidity;BME280_pressure;Samples;Min_cycle;Max_cycle;Signal;HPM_P1;HPM_P2
2023/07/31 00:00:59;;;;;;;;;;;;;;;18.86;54.80;99842.88;1087978;47;19927;-84
2023/07/31 00:02:14;;;;;;;;;;;;;;;18.88;55.13;99844.53;1087931;47;19942;-85
2023/07/31 00:05:16;;;;;;;;;;;;;;;18.89;55.13;99846.22;1087918;47;19990;-85
2023/07/31 00:06:29;;;;;;;;;;;;;;;18.85;55.25;99843.91;1087996;47;20018;-85
2023/07/31 00:07:41;;;;;;;;;;;;;;;18.82;55.37;99841.59;1087869;47;19951;-85
2023/07/31 00:08:55;;;;;;;;;;;;;;;18.81;55.16;99850.75;1087897;47;19950;-84
2023/07/31 00:10:05;;;;;;;;;;;;;;;18.82;55.23;99847.00;1087887;47;19973;-83
2023/07/31 00:11:24;;;;;;;;;;;;;;;18.80;55.10;99835.53;1087946;47;19927;-85
2023/07/31 00:12:28;;;;;;;;;;;;;;;18.91;55.23;99833.28;1088142;54;19942;-84
2023/07/31 00:15:54;;;;;;;;;;;;;;;18.76;55.53;99839.72;1087692;47;19945;-85
2023/07/31 00:16:56;;;;;;;;;;;;;;;18.69;55.70;99838.84;1087506;47;20852;-83
2023/07/31 00:18:01;;;;;;;;;;;;;;;18.70;55.72;99838.66;1087538;54;19949;-83
2023/07/31 00:19:02;;;;;;;;;;;;;;;18.76;55.65;99839.72;1087943;54;20016;-83
2023/07/31 00:20:08;;;;;;;;;;;;;;;18.69;55.42;99842.38;1087914;54;19942;-84
2023/07/31 00:21:39;;;;;;;;;;;;;;;18.69;55.82;99830.75;1088084;54;19943;-85
2023/07/31 00:24:38;;;;;;;;;;;;;;;18.67;55.78;99830.09;1087811;47;20069;-84
2023/07/31 00:25:50;;;;;;;;;;;;;;;18.58;55.78;99837.56;1087850;47;19969;-84
2023/07/31 00:26:54;;;;;;;;;;;;;;;18.63;55.69;99824.25;1087835;54;19934;-85
2023/07/31 00:28:10;;;;;;;;;;;;;;;18.66;55.81;99823.00;1087974;47;19980;-85
2023/07/31 00:31:01;;;;;;;;;;;;;;;18.67;55.72;99830.09;1087771;47;19966;-83
2023/07/31 00:32:07;;;;;;;;;;;;;;;18.58;56.19;99834.03;1087926;47;19950;-84
2023/07/31 00:41:11;;;;;;;;;;;;;;;18.64;56.10;99827.78;1088264;54;19923;-85
2023/07/31 00:42:13;;;;;;;;;;;;;;;18.57;56.33;99833.16;1087835;54;19942;-82
2023/07/31 00:43:19;;;;;;;;;;;;;;;18.54;56.65;99831.72;1087995;47;19945;-83
2023/07/31 00:44:20;;;;;;;;;;;;;;;18.61;56.45;99820.09;1088053;54;19975;-83
2023/07/31 00:45:27;;;;;;;;;;;;;;;18.62;56.54;99827.16;1087869;54;19975;-83
2023/07/31 00:46:28;;;;;;;;;;;;;;;18.62;56.13;99827.16;1087960;47;19950;-82
2023/07/31 00:47:33;;;;;;;;;;;;;;;18.59;56.25;99824.88;1087924;47;19950;-83
2023/07/31 00:48:37;;;;;;;;;;;;;;;18.63;56.28;99823.41;1087894;47;20107;-83
2023/07/31 00:49:43;;;;;;;;;;;;;;;18.60;56.51;99826.53;1088019;54;19967;-83
2023/07/31 00:50:44;;;;;;;;;;;;;;;18.59;56.34;99822.16;1088256;54;19966;-83
2023/07/31 00:51:48;;;;;;;;;;;;;;;18.55;56.26;99825.25;1089823;31;20674;-83
2023/07/31 00:52:49;;;;;;;;;;;;;;;18.51;56.58;99818.59;1087957;47;19938;-82
2023/07/31 00:53:57;;;;;;;;;;;;;;;18.52;56.48;99820.25;1087949;47;19946;-83
2023/07/31 00:55:01;;;;;;;;;;;;;;;18.53;56.25;99824.63;1087993;54;19966;-83
2023/07/31 00:59:30;;;;;;;;;;;;;;;18.53;56.66;99823.81;1088006;54;19943;-83
2023/07/31 01:00:34;;;;;;;;;;;;;;;18.54;56.23;99818.19;1087356;47;19950;-81
2023/07/31 01:01:37;;;;;;;;;;;;;;;18.54;56.27;99807.34;1087602;46;19950;-82
2023/07/31 01:02:38;;;;;;;;;;;;;;;18.60;56.13;99821.13;1087765;54;19946;-82
2023/07/31 01:03:42;;;;;;;;;;;;;;;18.59;56.05;99824.88;1087341;47;19966;-84
2023/07/31 01:04:49;;;;;;;;;;;;;;;18.55;56.27;99814.44;1087858;47;19938;-83
2023/07/31 01:06:00;;;;;;;;;;;;;;;18.50;56.27;99826.91;1087789;54;19927;-82
2023/07/31 01:07:29;;;;;;;;;;;;;;;18.48;56.41;99821.69;1087906;54;19946;-84
2023/07/31 01:08:40;;;;;;;;;;;;;;;18.48;56.17;99816.28;1087741;54;19943;-83
2023/07/31 01:09:45;;;;;;;;;;;;;;;18.46;56.14;99821.06;1087854;46;19927;-83
2023/07/31 01:10:52;;;;;;;;;;;;;;;18.51;55.94;99813.19;1088138;54;19938;-83
2023/07/31 01:11:59;;;;;;;;;;;;;;;18.51;55.88;99818.59;1088034;47;19987;-84
2023/07/31 01:13:12;;;;;;;;;;;;;;;18.55;56.18;99817.16;1087611;54;19946;-84
2023/07/31 01:14:17;;;;;;;;;;;;;;;18.53;56.09;99815.69;1088123;54;19950;-82
2023/07/31 01:15:24;;;;;;;;;;;;;;;18.54;55.88;99814.66;1091619;39;20615;-83
2023/07/31 01:16:35;;;;;;;;;;;;;;;18.49;56.21;99809.84;1088057;47;19927;-83
2023/07/31 01:17:46;;;;;;;;;;;;;;;18.42;56.31;99808.97;1087923;54;20019;-83
2023/07/31 01:18:50;;;;;;;;;;;;;;;18.43;56.27;99807.94;1087831;47;19966;-83
2023/07/31 01:20:18;;;;;;;;;;;;;;;;;;;;;
2023/07/31 01:22:07;;;;;;;;;;;;;;;18.45;56.31;99795.03;1087776;54;19950;-84
2023/07/31 01:23:29;;;;;;;;;;;;;;;18.37;56.42;99795.22;1087986;47;19942;-83
2023/07/31 01:34:07;;;;;;;;;;;;;;;18.22;57.14;99796.22;1087232;54;19939;-84
2023/07/31 01:35:08;;;;;;;;;;;;;;;18.26;56.87;99784.97;1087897;54;19950;-82
2023/07/31 01:36:09;;;;;;;;;;;;;;;18.09;57.17;99796.94;1087629;47;19938;-82
2023/07/31 01:37:18;;;;;;;;;;;;;;;18.11;57.11;99795.91;1087673;54;19938;-82
2023/07/31 01:38:22;;;;;;;;;;;;;;;18.04;57.65;99791.31;1087795;54;19943;-83
2023/07/31 01:39:25;;;;;;;;;;;;;;;18.12;57.13;99779.50;1087585;46;20017;-83
2023/07/31 01:40:31;;;;;;;;;;;;;;;18.13;57.17;99783.88;1087306;47;19939;-83
2023/07/31 01:41:35;;;;;;;;;;;;;;;18.13;57.33;99789.31;1087732;47;19961;-82
2023/07/31 01:42:49;;;;;;;;;;;;;;;18.15;57.24;99781.78;1087475;47;20604;-83
2023/07/31 01:43:52;;;;;;;;;;;;;;;18.03;57.42;99792.34;1087471;47;19976;-82
2023/07/31 01:44:53;;;;;;;;;;;;;;;18.05;57.41;99784.88;1087599;47;19969;-82
2023/07/31 01:45:58;;;;;;;;;;;;;;;18.05;57.78;99781.31;1087744;47;19945;-82
2023/07/31 01:47:00;;;;;;;;;;;;;;;17.96;57.65;99779.78;1087773;47;20007;-83
2023/07/31 01:48:05;;;;;;;;;;;;;;;17.98;57.68;99777.75;1087915;47;19942;-85
2023/07/31 01:49:08;;;;;;;;;;;;;;;18.00;57.90;99775.69;1087440;47;19938;-83
2023/07/31 01:50:12;;;;;;;;;;;;;;;18.01;57.90;99780.06;1086712;47;19947;-83
2023/07/31 01:51:13;;;;;;;;;;;;;;;18.03;57.69;99773.44;1087404;54;19946;-82
2023/07/31 01:52:17;;;;;;;;;;;;;;;18.09;57.60;99778.03;1087269;47;19938;-83
2023/07/31 01:53:17;;;;;;;;;;;;;;;18.07;57.45;99779.25;1087252;54;19980;-83
2023/07/31 01:54:21;;;;;;;;;;;;;;;18.07;57.65;99781.97;1087171;47;19942;-82
2023/07/31 01:55:21;;;;;;;;;;;;;;;18.11;57.38;99777.84;1086782;47;20027;-83
2023/07/31 01:56:22;;;;;;;;;;;;;;;18.09;57.53;99777.19;1086939;47;20047;-82
2023/07/31 01:57:27;;;;;;;;;;;;;;;18.06;58.09;99780.28;1086937;47;19950;-83
2023/07/31 01:58:27;;;;;;;;;;;;;;;18.05;57.94;99775.91;1086924;47;19958;-82
2023/07/31 01:59:31;;;;;;;;;;;;;;;18.11;57.95;99775.13;1087030;47;19945;-84
2023/07/31 02:00:32;;;;;;;;;;;;;;;18.14;57.91;99774.72;1086839;47;19938;-82
2023/07/31 02:01:35;;;;;;;;;;;;;;;18.04;57.95;99779.69;1086757;47;19975;-82
2023/07/31 02:02:36;;;;;;;;;;;;;;;18.01;58.12;99777.38;1086614;46;19946;-83
2023/07/31 02:03:39;;;;;;;;;;;;;;;18.08;57.84;99770.13;1086646;47;19947;-84
2023/07/31 02:04:43;;;;;;;;;;;;;;;18.10;57.79;99773.47;1086875;47;19939;-83
2023/07/31 02:05:49;;;;;;;;;;;;;;;18.09;58.10;99769.09;1086440;47;19946;-82
2023/07/31 02:06:50;;;;;;;;;;;;;;;18.14;58.15;99768.47;1086890;39;20353;-82
2023/07/31 02:07:53;;;;;;;;;;;;;;;18.17;57.83;99768.09;1086769;47;19968;-83
2023/07/31 02:08:55;;;;;;;;;;;;;;;18.13;57.73;99772.22;1086337;47;19947;-82
2023/07/31 02:09:58;;;;;;;;;;;;;;;18.17;57.97;99768.09;1086561;54;19972;-83
2023/07/31 02:10:59;;;;;;;;;;;;;;;18.19;57.81;99761.44;1086592;47;19998;-83
2023/07/31 02:12:02;;;;;;;;;;;;;;;18.20;57.53;99752.28;1087149;47;19946;-83
2023/07/31 02:13:03;;;;;;;;;;;;;;;18.19;57.89;99769.56;1086740;54;21348;-82
2023/07/31 02:14:07;;;;;;;;;;;;;;;18.19;57.45;99756.03;1086404;46;20783;-82
2023/07/31 02:15:09;;;;;;;;;;;;;;;18.16;57.74;99755.59;1086338;47;20130;-84
2023/07/31 02:16:13;;;;;;;;;;;;;;;18.14;57.64;99757.66;1087314;39;20741;-83
2023/07/31 02:17:13;;;;;;;;;;;;;;;18.12;57.91;99757.88;1087081;47;19974;-82
2023/07/31 02:18:17;;;;;;;;;;;;;;;18.12;57.66;99755.16;1086978;47;19939;-83
2023/07/31 02:19:17;;;;;;;;;;;;;;;18.07;57.88;99765.75;1087076;54;19971;-82
2023/07/31 02:20:23;;;;;;;;;;;;;;;18.08;57.91;99760.16;1086888;46;20795;-84
2023/07/31 02:21:24;;;;;;;;;;;;;;;18.09;58.06;99758.25;1087244;54;19942;-83
2023/07/31 02:22:28;;;;;;;;;;;;;;;18.05;58.02;99757.84;1086955;47;19947;-84
2023/07/31 02:23:28;;;;;;;;;;;;;;;18.03;58.29;99753.69;1088532;39;20514;-83
2023/07/31 02:24:32;;;;;;;;;;;;;;;18.02;57.95;99754.72;1086870;47;19947;-83
2023/07/31 02:25:35;;;;;;;;;;;;;;;18.04;58.10;99758.06;1087561;39;20695;-83
2023/07/31 02:26:38;;;;;;;;;;;;;;;17.93;58.18;99757.56;1086951;54;19950;-83
2023/07/31 02:27:39;;;;;;;;;;;;;;;17.98;58.20;99750.72;1087249;54;19942;-83
2023/07/31 02:28:45;;;;;;;;;;;;;;;17.98;57.96;99745.31;1087639;39;20738;-83
2023/07/31 02:29:46;;;;;;;;;;;;;;;17.99;58.29;99750.53;1087213;47;19939;-83
2023/07/31 02:30:49;;;;;;;;;;;;;;;17.95;58.16;99748.41;1087576;54;19973;-82
2023/07/31 02:31:50;;;;;;;;;;;;;;;17.99;58.27;99741.56;1087095;47;19939;-83
2023/07/31 02:32:53;;;;;;;;;;;;;;;18.00;57.94;99748.66;1087190;54;19947;-84
2023/07/31 02:33:54;;;;;;;;;;;;;;;17.96;57.93;99750.94;1087288;47;19939;-83
2023/07/31 02:34:59;;;;;;;;;;;;;;;18.01;57.92;99742.22;1090788;39;20671;-85
2023/07/31 02:36:03;;;;;;;;;;;;;;;17.96;57.98;99739.22;1087255;54;19988;-83
2023/07/31 02:37:04;;;;;;;;;;;;;;;17.83;58.42;99748.13;1087483;54;19944;-85
2023/07/31 02:38:08;;;;;;;;;;;;;;;17.85;58.01;99740.66;1087565;46;19939;-83
2023/07/31 02:39:10;;;;;;;;;;;;;;;17.82;58.23;99744.59;1087321;47;19938;-83
2023/07/31 02:40:14;;;;;;;;;;;;;;;17.90;57.90;99740.91;1089803;39;20262;-82
2023/07/31 02:41:15;;;;;;;;;;;;;;;17.93;57.88;99735.91;1087129;54;19950;-82
2023/07/31 02:42:17;;;;;;;;;;;;;;;17.93;58.10;99740.47;1086919;54;20033;-83
2023/07/31 02:43:25;;;;;;;;;;;;;;;17.95;57.79;99737.59;1087183;52;19938;-81
2023/07/31 02:44:26;;;;;;;;;;;;;;;17.92;57.71;99739.66;1088852;31;20831;-81
2023/07/31 02:45:30;;;;;;;;;;;;;;;17.91;57.70;99737.97;1087088;54;19950;-81
2023/07/31 02:46:31;;;;;;;;;;;;;;;17.91;58.02;99732.56;1088727;39;20224;-82
2023/07/31 02:47:35;;;;;;;;;;;;;;;17.95;57.83;99732.19;1087309;47;19939;-82
2023/07/31 02:48:36;;;;;;;;;;;;;;;17.91;58.03;99742.53;1087216;47;20333;-82
2023/07/31 02:49:40;;;;;;;;;;;;;;;17.96;57.83;99736.53;1086981;54;19949;-83
2023/07/31 02:50:41;;;;;;;;;;;;;;;17.98;57.67;99739.91;1090607;31;20776;-81
2023/07/31 02:51:47;;;;;;;;;;;;;;;18.00;57.75;99740.53;1086486;47;19945;-81
2023/07/31 02:52:48;;;;;;;;;;;;;;;17.95;57.85;99743.00;1087219;47;19950;-82
2023/07/31 02:53:51;;;;;;;;;;;;;;;17.90;58.15;99740.91;1087404;39;20956;-81
2023/07/31 02:54:52;;;;;;;;;;;;;;;17.95;57.69;99737.59;1086169;47;19945;-81
2023/07/31 02:55:56;;;;;;;;;;;;;;;17.97;57.68;99743.63;1086950;47;20812;-82
2023/07/31 02:56:57;;;;;;;;;;;;;;;17.86;58.26;99734.22;1087005;46;19946;-83
2023/07/31 02:58:00;;;;;;;;;;;;;;;17.80;58.09;99735.00;1087060;54;19950;-84
2023/07/31 02:59:01;;;;;;;;;;;;;;;17.84;58.46;99737.13;1087624;39;20509;-81
2023/07/31 03:00:05;;;;;;;;;;;;;;;17.80;58.26;99733.13;1088027;39;20474;-82
2023/07/31 03:01:11;;;;;;;;;;;;;;;17.80;58.40;99730.44;1087030;47;19962;-84
2023/07/31 03:02:12;;;;;;;;;;;;;;;17.73;58.54;99734.97;1087644;54;19950;-83
2023/07/31 03:04:57;;;;;;;;;;;;;;;17.72;59.02;99739.53;1087496;47;19951;-83
2023/07/31 03:07:31;;;;;;;;;;;;;;;17.76;58.71;99739.97;1087366;47;19993;-84
2023/07/31 03:08:41;;;;;;;;;;;;;;;17.76;58.87;99745.38;1087594;54;19942;-84
2023/07/31 03:09:46;;;;;;;;;;;;;;;17.78;58.63;99738.75;1087717;47;19949;-82
2023/07/31 03:11:05;;;;;;;;;;;;;;;17.82;58.75;99743.75;1087566;54;19942;-83
2023/07/31 03:12:10;;;;;;;;;;;;;;;17.80;58.44;99741.25;1087446;54;20006;-83
2023/07/31 03:13:22;;;;;;;;;;;;;;;17.80;58.42;99741.25;1087524;47;20027;-84
2023/07/31 03:14:33;;;;;;;;;;;;;;;17.80;58.80;99735.84;1087586;54;19954;-82
2023/07/31 03:15:42;;;;;;;;;;;;;;;17.85;58.61;99736.09;1087288;54;19938;-82
2023/07/31 03:16:45;;;;;;;;;;;;;;;17.86;58.35;99734.22;1087452;47;19950;-83
2023/07/31 03:17:46;;;;;;;;;;;;;;;17.89;58.58;99733.81;1087239;47;19966;-82
2023/07/31 03:18:53;;;;;;;;;;;;;;;17.86;58.67;99737.72;1089233;39;20689;-83
2023/07/31 03:19:54;;;;;;;;;;;;;;;17.82;58.50;99738.34;1087426;47;19946;-83
2023/07/31 03:20:57;;;;;;;;;;;;;;;17.84;58.77;99738.97;1087333;46;19939;-82
2023/07/31 03:22:01;;;;;;;;;;;;;;;17.84;58.64;99734.41;1087493;47;19938;-84
2023/07/31 03:23:08;;;;;;;;;;;;;;;17.80;58.52;99733.13;1087123;47;19946;-82
2023/07/31 03:24:09;;;;;;;;;;;;;;;17.78;58.66;99733.34;1087058;54;19950;-84
2023/07/31 03:25:14;;;;;;;;;;;;;;;17.79;58.79;99728.75;1087387;47;19969;-85
2023/07/31 03:26:15;;;;;;;;;;;;;;;17.77;58.91;99736.22;1087569;54;19969;-83
2023/07/31 03:27:18;;;;;;;;;;;;;;;17.80;58.73;99735.84;1087815;54;19962;-85
2023/07/31 03:28:36;;;;;;;;;;;;;;;17.76;58.63;99729.16;1087737;54;19994;-83
2023/07/31 03:29:47;;;;;;;;;;;;;;;17.79;58.77;99731.47;1087443;47;19939;-83
2023/07/31 03:30:48;;;;;;;;;;;;;;;17.81;58.42;99732.09;1087206;47;19969;-83
2023/07/31 03:33:20;;;;;;;;;;;;;;;17.70;58.99;99729.97;1087626;47;20010;-84
2023/07/31 03:34:22;;;;;;;;;;;;;;;17.77;58.70;99722.72;1086852;47;19978;-82
2023/07/31 03:35:25;;;;;;;;;;;;;;;17.80;58.86;99726.91;1086694;47;19939;-82
2023/07/31 03:36:28;;;;;;;;;;;;;;;17.83;58.70;99729.19;1086563;54;20029;-82
2023/07/31 03:37:29;;;;;;;;;;;;;;;17.83;58.41;99727.34;1086686;54;19951;-83
2023/07/31 03:38:35;;;;;;;;;;;;;;;17.87;58.43;99725.88;1086983;47;19964;-81
2023/07/31 03:39:36;;;;;;;;;;;;;;;17.85;58.56;99735.25;1086739;47;19947;-82
2023/07/31 03:40:37;;;;;;;;;;;;;;;17.84;58.52;99729.00;1087083;54;19965;-81
2023/07/31 03:41:40;;;;;;;;;;;;;;;17.85;58.60;99735.25;1087231;54;19951;-83
2023/07/31 03:42:43;;;;;;;;;;;;;;;17.81;58.38;99736.66;1087271;47;19951;-83
2023/07/31 03:43:48;;;;;;;;;;;;;;;17.80;58.58;99741.25;1086857;47;19967;-81
2023/07/31 03:44:49;;;;;;;;;;;;;;;17.83;58.28;99740.00;1086794;47;20314;-81
2023/07/31 03:45:54;;;;;;;;;;;;;;;17.83;58.16;99740.84;1085944;54;19942;-81
2023/07/31 03:46:55;;;;;;;;;;;;;;;17.85;58.13;99735.25;1085732;54;20031;-80
2023/07/31 03:47:58;;;;;;;;;;;;;;;17.83;58.52;99740.84;1086486;54;19947;-82
2023/07/31 03:49:00;;;;;;;;;;;;;;;17.83;58.57;99734.59;1089026;39;21002;-81
2023/07/31 03:50:04;;;;;;;;;;;;;;;17.85;58.34;99733.38;1085639;47;19958;-80
2023/07/31 03:51:04;;;;;;;;;;;;;;;17.85;58.09;99733.38;1086161;47;19958;-81
2023/07/31 03:52:09;;;;;;;;;;;;;;;17.83;58.47;99726.50;1086647;54;19943;-81
2023/07/31 03:53:10;;;;;;;;;;;;;;;17.82;58.21;99722.97;1086584;47;19946;-81
2023/07/31 03:54:16;;;;;;;;;;;;;;;17.84;58.27;99733.56;1086388;54;19942;-79
2023/07/31 03:55:19;;;;;;;;;;;;;;;17.81;58.42;99721.28;1087014;54;19942;-82
2023/07/31 03:56:22;;;;;;;;;;;;;;;17.83;58.36;99727.34;1087019;47;19994;-83
2023/07/31 03:57:23;;;;;;;;;;;;;;;17.83;58.49;99721.94;1086771;46;19946;-82
2023/07/31 03:58:27;;;;;;;;;;;;;;;17.84;58.62;99722.75;1087244;47;19946;-82
2023/07/31 03:59:28;;;;;;;;;;;;;;;17.84;58.42;99720.91;1086814;47;19939;-81
2023/07/31 04:00:31;;;;;;;;;;;;;;;17.77;58.32;99720.84;1086681;47;19958;-83
2023/07/31 04:01:32;;;;;;;;;;;;;;;17.76;58.54;99723.75;1086884;54;19951;-82
2023/07/31 04:02:36;;;;;;;;;;;;;;;17.78;58.45;99727.09;1087125;47;19938;-83
2023/07/31 04:03:43;;;;;;;;;;;;;;;17.78;58.24;99721.69;1086974;54;19958;-83
2023/07/31 04:04:49;;;;;;;;;;;;;;;17.71;58.41;99726.22;1087305;47;19946;-82
2023/07/31 04:05:51;;;;;;;;;;;;;;;17.71;58.46;99731.63;1087286;54;19969;-83
2023/07/31 04:06:57;;;;;;;;;;;;;;;17.73;58.38;99729.56;1087153;54;19942;-82
2023/07/31 04:07:58;;;;;;;;;;;;;;;17.71;58.58;99732.44;1087256;47;19939;-81
2023/07/31 04:08:59;;;;;;;;;;;;;;;17.71;58.35;99726.22;1086858;47;19939;-81
2023/07/31 04:10:06;;;;;;;;;;;;;;;17.67;58.74;99724.94;1086806;54;19993;-81
2023/07/31 04:11:06;;;;;;;;;;;;;;;17.69;58.33;99734.53;1087091;54;19943;-83
2023/07/31 04:12:10;;;;;;;;;;;;;;;17.70;58.67;99730.81;1086762;47;19939;-81
2023/07/31 04:13:11;;;;;;;;;;;;;;;17.71;58.54;99739.75;1087247;54;19965;-83
2023/07/31 04:14:14;;;;;;;;;;;;;;;17.70;58.36;99729.97;1087292;54;19942;-80
2023/07/31 04:15:15;;;;;;;;;;;;;;;17.73;58.30;99729.56;1087133;47;19946;-81
2023/07/31 04:16:19;;;;;;;;;;;;;;;17.69;58.66;99723.72;1087046;54;19954;-81
2023/07/31 04:17:19;;;;;;;;;;;;;;;17.68;58.42;99726.63;1087516;54;19951;-82
2023/07/31 04:18:25;;;;;;;;;;;;;;;17.69;58.52;99730.97;1087076;47;19946;-82
2023/07/31 04:19:25;;;;;;;;;;;;;;;17.69;58.67;99733.69;1086490;46;20093;-80
2023/07/31 04:20:29;;;;;;;;;;;;;;;17.69;58.29;99733.69;1086799;54;20010;-81
2023/07/31 04:21:29;;;;;;;;;;;;;;;17.72;58.34;99733.31;1087248;47;19938;-82
2023/07/31 04:22:34;;;;;;;;;;;;;;;17.69;58.40;99730.97;1087044;47;19950;-81
2023/07/31 04:23:35;;;;;;;;;;;;;;;17.69;58.12;99739.94;1087039;54;19954;-82
2023/07/31 04:24:38;;;;;;;;;;;;;;;17.69;58.54;99733.69;1086895;54;19946;-82
2023/07/31 04:25:43;;;;;;;;;;;;;;;17.75;58.18;99732.91;1088291;39;20257;-83
2023/07/31 04:26:47;;;;;;;;;;;;;;;17.74;58.03;99742.06;1087071;47;19973;-81
2023/07/31 04:27:47;;;;;;;;;;;;;;;17.75;58.18;99730.22;1087261;47;20537;-81
2023/07/31 04:28:51;;;;;;;;;;;;;;;17.75;58.30;99738.31;1087135;54;20002;-82
2023/07/31 04:29:52;;;;;;;;;;;;;;;17.77;58.12;99731.66;1086715;54;19947;-82
2023/07/31 04:30:55;;;;;;;;;;;;;;;17.76;58.02;99734.56;1086959;47;20026;-81
2023/07/31 04:31:56;;;;;;;;;;;;;;;17.72;58.01;99733.31;1087120;54;19988;-81
2023/07/31 04:32:57;;;;;;;;;;;;;;;17.73;58.37;99729.56;1087312;54;19950;-81
2023/07/31 04:34:00;;;;;;;;;;;;;;;17.73;58.03;99730.38;1086965;47;19949;-83
2023/07/31 04:35:01;;;;;;;;;;;;;;;17.74;58.09;99728.53;1087435;39;20310;-81
2023/07/31 04:36:04;;;;;;;;;;;;;;;17.66;58.21;99729.53;1087046;47;19939;-80
2023/07/31 04:37:05;;;;;;;;;;;;;;;17.65;58.58;99730.56;1086792;54;19943;-83
2023/07/31 04:38:06;;;;;;;;;;;;;;;17.62;58.78;99733.66;1086891;54;19942;-82
2023/07/31 04:39:09;;;;;;;;;;;;;;;17.66;58.78;99729.53;1088285;39;20825;-82
2023/07/31 04:40:10;;;;;;;;;;;;;;;17.69;58.55;99730.97;1086596;54;19946;-81
2023/07/31 04:41:16;;;;;;;;;;;;;;;17.67;58.58;99727.63;1086831;54;19965;-81
2023/07/31 04:42:17;;;;;;;;;;;;;;;17.68;58.24;99732.88;1087015;54;19950;-82
2023/07/31 04:43:21;;;;;;;;;;;;;;;17.67;58.39;99725.78;1086720;47;19942;-81
2023/07/31 04:44:21;;;;;;;;;;;;;;;17.71;58.69;99721.63;1087276;54;19943;-83
2023/07/31 04:45:25;;;;;;;;;;;;;;;17.73;58.62;99730.38;1087392;47;19939;-82
2023/07/31 04:46:26;;;;;;;;;;;;;;;17.75;58.43;99724.81;1087651;39;20187;-84
2023/07/31 04:47:27;;;;;;;;;;;;;;;17.72;58.48;99727.91;1087231;54;19942;-83
2023/07/31 04:48:30;;;;;;;;;;;;;;;17.75;58.43;99722.09;1086835;46;19994;-81
2023/07/31 04:49:33;;;;;;;;;;;;;;;17.76;58.47;99721.88;1087252;47;19950;-80
2023/07/31 04:50:37;;;;;;;;;;;;;;;17.79;58.45;99723.34;1087167;47;19946;-81
2023/07/31 04:51:38;;;;;;;;;;;;;;;17.76;58.37;99726.44;1087375;47;20010;-82
2023/07/31 04:52:51;;;;;;;;;;;;;;;17.79;58.57;99726.06;1087632;47;19940;-83
2023/07/31 04:53:52;;;;;;;;;;;;;;;17.78;58.45;99725.22;1087684;47;19964;-80
2023/07/31 04:54:55;;;;;;;;;;;;;;;17.76;58.81;99721.03;1087372;47;19964;-83
2023/07/31 04:55:56;;;;;;;;;;;;;;;17.80;58.61;99727.72;1087315;47;20600;-81
2023/07/31 04:57:02;;;;;;;;;;;;;;;17.79;58.42;99726.06;1087059;54;20046;-82
2023/07/31 04:58:03;;;;;;;;;;;;;;;17.82;58.32;99722.97;1087113;47;19939;-82
2023/07/31 04:59:08;;;;;;;;;;;;;;;17.86;58.70;99726.91;1091547;39;20701;-83
2023/07/31 05:00:09;;;;;;;;;;;;;;;17.86;58.70;99724.22;1086892;46;19964;-81
2023/07/31 05:01:12;;;;;;;;;;;;;;;17.87;58.33;99722.34;1087317;47;20022;-81
2023/07/31 05:02:13;;;;;;;;;;;;;;;17.86;58.36;99718.81;1087259;47;19939;-81
2023/07/31 05:03:16;;;;;;;;;;;;;;;17.86;58.60;99713.41;1087185;47;19939;-82
2023/07/31 05:04:17;;;;;;;;;;;;;;;17.84;58.70;99715.50;1087582;54;19938;-84
2023/07/31 05:05:26;;;;;;;;;;;;;;;17.80;58.44;99708.81;1087583;47;19965;-84
2023/07/31 05:06:30;;;;;;;;;;;;;;;17.80;58.90;99714.22;1087589;46;19950;-83
2023/07/31 05:07:34;;;;;;;;;;;;;;;17.84;58.40;99712.78;1087253;47;19951;-82
2023/07/31 05:08:35;;;;;;;;;;;;;;;17.89;58.45;99713.00;1087012;54;19982;-81
2023/07/31 05:09:39;;;;;;;;;;;;;;;17.89;58.68;99704.91;1087378;47;19941;-81
2023/07/31 05:10:40;;;;;;;;;;;;;;;17.89;58.32;99704.91;1087270;54;19942;-80
2023/07/31 05:11:45;;;;;;;;;;;;;;;17.92;58.30;99704.50;1087159;47;20024;-81
2023/07/31 05:12:50;;;;;;;;;;;;;;;17.95;58.54;99703.25;1087469;46;19931;-82
2023/07/31 05:14:01;;;;;;;;;;;;;;;17.93;58.60;99708.03;1087646;54;20774;-84
2023/07/31 05:15:09;;;;;;;;;;;;;;;17.93;58.45;99702.63;1087675;47;19938;-83
2023/07/31 05:16:14;;;;;;;;;;;;;;;17.93;58.37;99706.19;1087612;47;19939;-83
2023/07/31 05:17:16;;;;;;;;;;;;;;;17.92;58.22;99703.66;1087331;47;20009;-84
2023/07/31 05:18:20;;;;;;;;;;;;;;;17.83;58.49;99708.41;1087714;54;19970;-83
2023/07/31 05:19:25;;;;;;;;;;;;;;;17.89;58.05;99713.00;1088260;39;20719;-83
2023/07/31 05:20:28;;;;;;;;;;;;;;;17.88;58.17;99708.63;1087371;47;19994;-82
2023/07/31 05:21:29;;;;;;;;;;;;;;;17.94;58.21;99701.59;1087508;54;19950;-82
2023/07/31 05:22:33;;;;;;;;;;;;;;;17.91;57.97;99700.13;1087697;46;20040;-81
2023/07/31 05:23:34;;;;;;;;;;;;;;;17.96;58.04;99698.66;1087716;46;19938;-82
2023/07/31 05:24:37;;;;;;;;;;;;;;;17.97;58.15;99697.66;1087666;47;20030;-82
2023/07/31 05:25:38;;;;;;;;;;;;;;;18.00;58.07;99702.69;1087432;47;20253;-82
2023/07/31 05:26:41;;;;;;;;;;;;;;;18.00;58.11;99699.97;1087518;47;20057;-81
2023/07/31 05:27:45;;;;;;;;;;;;;;;17.95;57.93;99697.84;1087109;54;19943;-80
2023/07/31 05:28:59;;;;;;;;;;;;;;;17.98;58.12;99704.75;1087137;47;19998;-82
2023/07/31 05:30:00;;;;;;;;;;;;;;;18.03;57.97;99702.28;1087343;47;19980;-82
2023/07/31 05:31:04;;;;;;;;;;;;;;;18.05;57.92;99706.44;1087281;47;20030;-81
2023/07/31 05:37:46;;;;;;;;;;;;;;;17.99;58.22;99706.41;1087959;54;19935;-82
2023/07/31 05:38:59;;;;;;;;;;;;;;;18.05;58.11;99700.19;1087577;47;19946;-83
2023/07/31 05:40:12;;;;;;;;;;;;;;;17.95;58.41;99697.84;1087057;47;19939;-82
2023/07/31 05:41:14;;;;;;;;;;;;;;;17.95;58.34;99702.44;1087259;47;19950;-81
2023/07/31 05:42:25;;;;;;;;;;;;;;;18.03;57.99;99700.41;1087596;47;19942;-81
2023/07/31 05:43:32;;;;;;;;;;;;;;;17.96;58.32;99707.66;1087275;47;19942;-81
2023/07/31 05:44:41;;;;;;;;;;;;;;;17.98;58.06;99704.75;1087692;47;19998;-81
2023/07/31 05:45:42;;;;;;;;;;;;;;;18.01;57.95;99698.94;1087356;47;19942;-80
2023/07/31 05:46:49;;;;;;;;;;;;;;;18.03;58.10;99705.81;1087520;47;19950;-82
2023/07/31 05:47:50;;;;;;;;;;;;;;;17.97;58.56;99703.06;1087656;47;20085;-84
2023/07/31 05:49:00;;;;;;;;;;;;;;;18.03;58.14;99703.13;1087816;54;20763;-86
2023/07/31 05:50:07;;;;;;;;;;;;;;;18.07;58.16;99707.09;1087802;46;20029;-83
2023/07/31 06:07:13;;;;;;;;;;;;;;;18.44;57.42;99695.13;1087355;54;19946;-82
2023/07/31 06:08:36;;;;;;;;;;;;;;;18.51;57.50;99699.53;1087434;47;19994;-82
2023/07/31 06:10:03;;;;;;;;;;;;;;;18.58;57.09;99695.97;1087545;54;19943;-82
2023/07/31 06:11:09;;;;;;;;;;;;;;;18.61;57.00;99687.47;1087610;47;19938;-81
2023/07/31 06:12:18;;;;;;;;;;;;;;;18.68;57.08;99696.41;1088717;39;20228;-82
2023/07/31 06:13:19;;;;;;;;;;;;;;;18.71;56.73;99701.38;1087560;47;19942;-80
2023/07/31 06:14:28;;;;;;;;;;;;;;;18.78;56.83;99704.97;1087607;54;19950;-81
2023/07/31 06:15:50;;;;;;;;;;;;;;;18.75;56.76;99696.41;1088142;39;20725;-81
2023/07/31 06:17:05;;;;;;;;;;;;;;;18.78;56.68;99694.13;1088142;54;19927;-83
2023/07/31 06:18:18;;;;;;;;;;;;;;;18.85;56.42;99700.38;1088100;54;19939;-85
2023/07/31 06:19:23;;;;;;;;;;;;;;;18.73;56.91;99696.63;1087387;54;19951;-81
2023/07/31 06:20:30;;;;;;;;;;;;;;;18.84;56.26;99698.72;1087751;54;19957;-80
2023/07/31 06:21:33;;;;;;;;;;;;;;;18.88;56.10;99695.59;1087676;47;19939;-81
2023/07/31 06:22:42;;;;;;;;;;;;;;;18.90;56.08;99702.47;1087842;47;19994;-80
2023/07/31 06:23:49;;;;;;;;;;;;;;;18.95;56.28;99699.16;1087796;54;20709;-81
2023/07/31 06:55:09;;;;;;;;;;;;;;;20.03;53.36;99676.19;1086444;54;19931;-81
2023/07/31 06:56:13;;;;;;;;;;;;;;;20.14;53.14;99673.84;1086463;54;19957;-82
2023/07/31 06:57:16;;;;;;;;;;;;;;;20.24;53.00;99674.22;1086892;47;19947;-81
2023/07/31 06:58:17;;;;;;;;;;;;;;;20.19;53.30;99672.16;1086956;54;19943;-83
2023/07/31 06:59:20;;;;;;;;;;;;;;;20.17;52.95;99676.97;1087387;39;20881;-82
2023/07/31 07:00:21;;;;;;;;;;;;;;;20.23;52.94;99684.25;1086811;54;20045;-82
2023/07/31 07:01:25;;;;;;;;;;;;;;;20.24;52.92;99679.63;1087017;54;19955;-81
2023/07/31 07:02:26;;;;;;;;;;;;;;;20.30;52.89;99667.94;1086992;47;19943;-82
2023/07/31 07:03:29;;;;;;;;;;;;;;;20.27;52.14;99668.38;1087130;54;19943;-85